Time;durP1;ratioP1;P1;durP2;ratioP2;P2;SDS_P1;SDS_P2;PMS_P1;PMS_P2;Temp;Humidity;BMP_temperature;BMP_pressure;BME280_temperature;BME280_humidity;BME280_pressure;Samples;Min_cycle;Max_cycle;Signal;HPM_P1;HPM_P2
2023/01/02 00:01:04;;;;;;;;;;;15.10;62.90;;;;;;5159172;27;19921;-65
2023/01/02 00:03:30;;;;;;;;;;;15.10;62.90;;;;;;5158863;27;19967;-70
2023/01/02 00:05:55;;;;;;;;;;;15.20;63.00;;;;;;5158814;27;20381;-70
2023/01/02 00:08:21;;;;;;;;;;;15.10;63.00;;;;;;5158584;27;19931;-65
2023/01/02 00:10:46;;;;;;;;;;;15.10;63.00;;;;;;5158871;27;19963;-64
2023/01/02 00:13:12;;;;;;;;;;;15.10;63.00;;;;;;5158417;27;19922;-71
2023/01/02 00:15:38;;;;;;;;;;;15.10;63.00;;;;;;5177532;27;19923;-64
2023/01/02 00:18:04;;;;;;;;;;;15.10;63.10;;;;;;5177377;27;20259;-71
2023/01/02 00:20:29;;;;;;;;;;;15.10;63.10;;;;;;5158723;27;20247;-65
2023/01/02 00:22:55;;;;;;;;;;;15.10;63.10;;;;;;5158710;27;19923;-65
2023/01/02 00:25:20;;;;;;;;;;;15.10;63.10;;;;;;5177236;27;20362;-65
2023/01/02 00:27:46;;;;;;;;;;;15.10;63.10;;;;;;5158415;27;19923;-64
2023/01/02 00:30:12;;;;;;;;;;;15.10;63.10;;;;;;5177043;27;19923;-65
2023/01/02 00:32:37;;;;;;;;;;;15.10;63.10;;;;;;5176569;27;19939;-64
2023/01/02 00:35:03;;;;;;;;;;;15.10;63.20;;;;;;5158205;27;20530;-64
2023/01/02 00:37:28;;;;;;;;;;;15.10;63.10;;;;;;5158126;27;19954;-65
2023/01/02 00:39:54;;;;;;;;;;;15.10;63.10;;;;;;5158090;27;20009;-71
2023/01/02 00:42:19;;;;;;;;;;;15.10;63.20;;;;;;5158406;27;19919;-64
2023/01/02 00:44:45;;;;;;;;;;;15.10;63.10;;;;;;5157967;27;19968;-64
2023/01/02 00:47:10;;;;;;;;;;;15.10;63.20;;;;;;5176761;27;19991;-64
2023/01/02 00:49:36;;;;;;;;;;;15.10;63.20;;;;;;5176639;27;19919;-65
2023/01/02 00:52:01;;;;;;;;;;;15.10;63.20;;;;;;5176499;27;20374;-65
2023/01/02 00:54:27;;;;;;;;;;;15.10;63.20;;;;;;5156680;27;19940;-70
2023/01/02 00:56:52;;;;;;;;;;;15.10;63.20;;;;;;5158096;27;19963;-65
2023/01/02 00:59:18;;;;;;;;;;;15.10;63.20;;;;;;5158071;27;19962;-65
2023/01/02 01:01:44;;;;;;;;;;;15.20;63.30;;;;;;5176379;27;20377;-65
2023/01/02 01:04:09;;;;;;;;;;;15.10;63.30;;;;;;5176306;27;19918;-71
2023/01/02 01:06:35;;;;;;;;;;;15.10;63.30;;;;;;5157857;27;19919;-64
2023/01/02 01:09:00;;;;;;;;;;;15.10;63.30;;;;;;5157495;27;19929;-64
2023/01/02 01:11:26;;;;;;;;;;;15.10;63.30;;;;;;5176346;27;19923;-71
2023/01/02 01:13:51;;;;;;;;;;;15.10;63.30;;;;;;5157518;27;19922;-65
2023/01/02 01:16:17;;;;;;;;;;;15.10;63.40;;;;;;5157370;27;19984;-66
2023/01/02 01:18:43;;;;;;;;;;;15.10;63.40;;;;;;5176057;27;19985;-71
2023/01/02 01:21:11;;;;;;;;;;;15.10;63.40;;;;;;5157609;27;19962;-71
2023/01/02 01:23:37;;;;;;;;;;;15.10;63.40;;;;;;5157472;27;19965;-64
2023/01/02 01:26:07;;;;;;;;;;;15.10;63.50;;;;;;5175825;27;20385;-64
2023/01/02 01:28:33;;;;;;;;;;;15.10;63.40;;;;;;5157484;27;20314;-65
2023/01/02 01:31:01;;;;;;;;;;;15.10;63.50;;;;;;5157059;27;19930;-72
2023/01/02 01:33:26;;;;;;;;;;;15.10;63.50;;;;;;5157069;27;19926;-65
2023/01/02 01:35:52;;;;;;;;;;;15.10;63.50;;;;;;5175647;27;19925;-65
2023/01/02 01:38:17;;;;;;;;;;;15.10;63.60;;;;;;5175897;27;20277;-71
2023/01/02 01:40:43;;;;;;;;;;;15.10;63.50;;;;;;5156997;27;19919;-65
2023/01/02 01:43:12;;;;;;;;;;;15.10;63.60;;;;;;5157205;27;19919;-65
2023/01/02 01:45:40;;;;;;;;;;;15.20;63.60;;;;;;5175548;27;20009;-65
2023/01/02 01:48:08;;;;;;;;;;;15.10;63.50;;;;;;5156785;27;19918;-65
2023/01/02 01:50:34;;;;;;;;;;;15.10;63.60;;;;;;5157111;27;20285;-65
2023/01/02 01:53:02;;;;;;;;;;;15.00;63.50;;;;;;5175350;27;20395;-65
2023/01/02 01:55:37;;;;;;;;;;;15.10;63.60;;;;;;5157022;27;19926;-65
2023/01/02 01:58:04;;;;;;;;;;;15.10;63.50;;;;;;5175232;27;19925;-65
2023/01/02 02:00:30;;;;;;;;;;;15.10;63.60;;;;;;5175312;27;19919;-65
2023/01/02 02:02:58;;;;;;;;;;;15.10;63.60;;;;;;5175165;27;19926;-65
2023/01/02 02:05:25;;;;;;;;;;;15.10;63.60;;;;;;5174954;27;19919;-65
2023/01/02 02:07:58;;;;;;;;;;;15.10;63.60;;;;;;5174057;27;20013;-71
2023/01/02 02:10:24;;;;;;;;;;;15.10;63.60;;;;;;5135747;27;19927;-64
2023/01/02 02:12:49;;;;;;;;;;;15.10;63.60;;;;;;5154101;27;19919;-71
2023/01/02 02:15:17;;;;;;;;;;;15.10;63.60;;;;;;5135895;27;19931;-71
2023/01/02 02:18:03;;;;;;;;;;;15.10;63.70;;;;;;5154194;27;19919;-71
2023/01/02 02:20:48;;;;;;;;;;;15.10;63.70;;;;;;5135611;27;19919;-65
2023/01/02 02:26:29;;;;;;;;;;;15.10;63.70;;;;;;5090029;27;19958;-73
2023/01/02 02:31:41;;;;;;;;;;;15.00;63.70;;;;;;5110317;27;19918;-65
2023/01/02 02:34:11;;;;;;;;;;;15.10;63.70;;;;;;5108990;28;19965;-65
2023/01/02 02:36:39;;;;;;;;;;;15.10;63.70;;;;;;5109255;28;20000;-73
2023/01/02 02:41:50;;;;;;;;;;;15.10;63.70;;;;;;5127608;27;1865539;-65
2023/01/02 02:44:35;;;;;;;;;;;15.00;63.70;;;;;;5174410;27;20009;-65
2023/01/02 02:47:04;;;;;;;;;;;15.10;63.80;;;;;;5192964;27;19925;-70
2023/01/02 02:52:30;;;;;;;;;;;15.10;63.80;;;;;;5110321;27;19912;-65
2023/01/02 02:54:59;;;;;;;;;;;15.10;63.80;;;;;;5108932;28;19999;-65
2023/01/02 02:57:25;;;;;;;;;;;15.00;63.80;;;;;;5109223;28;19924;-65
2023/01/02 02:59:51;;;;;;;;;;;15.10;63.80;;;;;;5108813;28;20019;-71
2023/01/02 03:02:18;;;;;;;;;;;15.10;63.90;;;;;;5109126;28;19966;-71
2023/01/02 03:04:46;;;;;;;;;;;15.10;63.90;;;;;;5108699;28;19920;-71
2023/01/02 03:20:45;;;;;;;;;;;15.10;63.90;;;;;;5089858;28;19918;-71
2023/01/02 03:23:14;;;;;;;;;;;15.10;63.90;;;;;;5088900;28;19920;-65
2023/01/02 03:25:42;;;;;;;;;;;15.00;63.90;;;;;;5088491;28;19970;-64
2023/01/02 03:28:08;;;;;;;;;;;15.10;64.00;;;;;;5088567;28;19920;-71
2023/01/02 03:30:36;;;;;;;;;;;15.10;64.00;;;;;;5088775;28;20391;-71
2023/01/02 03:33:07;;;;;;;;;;;15.00;64.00;;;;;;5088459;28;19960;-65
2023/01/02 03:35:35;;;;;;;;;;;15.10;64.00;;;;;;5088808;28;20300;-64
2023/01/02 03:38:01;;;;;;;;;;;15.00;64.00;;;;;;5088621;28;19971;-71
2023/01/02 03:40:29;;;;;;;;;;;15.10;64.00;;;;;;5089431;28;19925;-71
2023/01/02 03:42:58;;;;;;;;;;;15.10;64.00;;;;;;5088281;28;19927;-71
2023/01/02 03:45:27;;;;;;;;;;;15.10;64.00;;;;;;5089409;28;20434;-65
2023/01/02 03:50:35;;;;;;;;;;;15.10;64.00;;;;;;5127403;27;1867771;-71
2023/01/02 03:53:01;;;;;;;;;;;15.00;64.00;;;;;;5174469;27;19925;-65
2023/01/02 03:55:28;;;;;;;;;;;15.10;64.00;;;;;;5174318;27;19919;-65
2023/01/02 04:00:43;;;;;;;;;;;15.00;64.00;;;;;;5089981;28;19912;-64
2023/01/02 04:03:15;;;;;;;;;;;15.00;64.00;;;;;;5088525;28;20392;-65
2023/01/02 04:05:42;;;;;;;;;;;15.00;64.00;;;;;;5089797;28;20287;-65
2023/01/02 04:08:12;;;;;;;;;;;15.10;64.10;;;;;;5089982;28;19920;-64
2023/01/02 04:10:38;;;;;;;;;;;15.00;64.00;;;;;;5089923;28;20471;-64
2023/01/02 04:13:07;;;;;;;;;;;15.00;64.00;;;;;;5089541;28;19927;-65
2023/01/02 04:15:33;;;;;;;;;;;15.10;64.10;;;;;;5087758;28;19920;-66
2023/01/02 04:18:01;;;;;;;;;;;15.10;64.10;;;;;;5089490;28;19947;-65
2023/01/02 04:20:29;;;;;;;;;;;15.00;64.10;;;;;;5089451;28;19925;-65
2023/01/02 04:22:58;;;;;;;;;;;15.00;64.10;;;;;;5089440;28;19921;-65
2023/01/02 04:25:27;;;;;;;;;;;15.10;64.10;;;;;;5088486;28;19928;-71
2023/01/02 04:28:02;;;;;;;;;;;15.00;64.10;;;;;;5089400;28;20015;-65
2023/01/02 04:30:28;;;;;;;;;;;15.00;64.10;;;;;;5088310;28;20345;-72
2023/01/02 04:32:56;;;;;;;;;;;15.00;64.20;;;;;;5088303;28;19920;-65
2023/01/02 04:35:23;;;;;;;;;;;15.00;64.20;;;;;;5088016;28;19924;-65
2023/01/02 04:37:48;;;;;;;;;;;15.00;64.20;;;;;;5088162;28;19943;-71
2023/01/02 04:40:18;;;;;;;;;;;15.00;64.20;;;;;;5089180;28;19924;-71
2023/01/02 04:42:44;;;;;;;;;;;15.00;64.30;;;;;;5089119;28;19980;-65
2023/01/02 04:45:10;;;;;;;;;;;15.00;64.20;;;;;;5088087;28;19956;-65
2023/01/02 04:47:35;;;;;;;;;;;15.10;64.50;;;;;;5087765;28;20384;-65
2023/01/02 04:50:01;;;;;;;;;;;15.00;64.30;;;;;;5087810;28;19957;-72
2023/01/02 04:52:27;;;;;;;;;;;15.00;64.30;;;;;;5087954;28;19928;-71
2023/01/02 04:54:52;;;;;;;;;;;15.00;64.30;;;;;;5087851;28;20358;-71
2023/01/02 04:57:18;;;;;;;;;;;15.00;64.30;;;;;;5088835;28;19928;-71
2023/01/02 04:59:43;;;;;;;;;;;15.00;64.40;;;;;;5087184;28;19931;-65
2023/01/02 05:02:09;;;;;;;;;;;15.00;64.40;;;;;;5087471;28;19931;-71
2023/01/02 05:04:34;;;;;;;;;;;15.00;64.40;;;;;;5088660;28;19924;-71
2023/01/02 05:07:00;;;;;;;;;;;15.10;64.50;;;;;;5088759;28;19920;-71
2023/01/02 05:09:26;;;;;;;;;;;15.10;64.60;;;;;;5087725;28;19986;-64
2023/01/02 05:11:51;;;;;;;;;;;15.00;64.50;;;;;;5074714;28;20371;-65
2023/01/02 05:14:17;;;;;;;;;;;15.10;64.60;;;;;;5073853;28;20386;-71
2023/01/02 05:16:42;;;;;;;;;;;15.00;64.60;;;;;;5073634;28;19920;-64
2023/01/02 05:19:08;;;;;;;;;;;15.00;64.60;;;;;;5074889;28;19974;-71
2023/01/02 05:24:19;;;;;;;;;;;15.10;64.70;;;;;;5074283;28;19947;-71
2023/01/02 05:26:44;;;;;;;;;;;15.00;64.60;;;;;;5074600;28;20007;-64
2023/01/02 05:29:10;;;;;;;;;;;15.10;64.70;;;;;;5073508;28;20020;-65
2023/01/02 05:31:35;;;;;;;;;;;15.00;64.60;;;;;;5073371;28;19917;-71
2023/01/02 05:34:01;;;;;;;;;;;15.10;64.70;;;;;;5073576;28;20006;-65
2023/01/02 05:36:26;;;;;;;;;;;15.00;64.60;;;;;;5074861;28;19917;-65
2023/01/02 05:38:52;;;;;;;;;;;15.10;64.70;;;;;;5074462;28;19935;-64
2023/01/02 05:41:18;;;;;;;;;;;15.00;64.70;;;;;;5073195;28;19956;-65
2023/01/02 05:43:44;;;;;;;;;;;15.00;64.70;;;;;;5073162;28;19916;-65
2023/01/02 05:46:12;;;;;;;;;;;15.00;64.70;;;;;;5073164;28;19921;-65
2023/01/02 05:48:38;;;;;;;;;;;15.00;64.70;;;;;;5074623;28;19920;-65
2023/01/02 05:51:04;;;;;;;;;;;15.10;64.80;;;;;;5072991;28;19920;-66
2023/01/02 05:53:30;;;;;;;;;;;15.00;64.70;;;;;;5072988;28;19921;-65
2023/01/02 05:56:02;;;;;;;;;;;15.00;64.70;;;;;;5072879;28;19920;-65
2023/01/02 05:58:29;;;;;;;;;;;15.00;64.80;;;;;;5073355;28;19920;-65
2023/01/02 06:00:55;;;;;;;;;;;15.00;64.80;;;;;;5094014;28;19920;-65
2023/01/02 06:03:20;;;;;;;;;;;15.00;64.80;;;;;;5075837;28;19920;-64
2023/01/02 06:05:46;;;;;;;;;;;15.10;64.90;;;;;;5076053;28;19920;-65
2023/01/02 06:08:11;;;;;;;;;;;15.00;65.50;;;;;;5076097;28;20111;-71
2023/01/02 06:10:37;;;;;;;;;;;15.00;64.80;;;;;;5076268;28;19920;-65
2023/01/02 06:13:02;;;;;;;;;;;15.00;64.90;;;;;;5094065;28;20322;-64
2023/01/02 06:15:27;;;;;;;;;;;15.00;64.80;;;;;;5075147;28;19926;-65
2023/01/02 06:17:53;;;;;;;;;;;15.10;65.00;;;;;;5076142;28;19949;-71
2023/01/02 06:20:18;;;;;;;;;;;15.10;64.90;;;;;;5075531;28;19957;-65
2023/01/02 06:22:44;;;;;;;;;;;15.00;64.90;;;;;;5074649;28;20014;-71
2023/01/02 06:25:09;;;;;;;;;;;15.00;65.00;;;;;;5093466;28;20002;-68
2023/01/02 06:27:35;;;;;;;;;;;15.00;64.90;;;;;;5075962;28;19927;-71
2023/01/02 06:30:00;;;;;;;;;;;15.10;65.10;;;;;;5075939;28;19998;-72
2023/01/02 06:32:26;;;;;;;;;;;15.00;65.10;;;;;;5093804;28;20318;-72
2023/01/02 06:34:51;;;;;;;;;;;15.00;65.00;;;;;;5093692;28;19927;-65
2023/01/02 06:37:17;;;;;;;;;;;15.10;65.10;;;;;;5093764;28;19920;-65
2023/01/02 06:39:42;;;;;;;;;;;15.00;65.00;;;;;;5075261;28;19932;-71
2023/01/02 06:42:08;;;;;;;;;;;15.00;65.10;;;;;;5093356;28;19926;-65
2023/01/02 06:44:33;;;;;;;;;;;15.10;65.10;;;;;;5075372;28;19965;-65
2023/01/02 06:46:59;;;;;;;;;;;15.10;65.20;;;;;;5093232;28;19983;-65
2023/01/02 06:49:24;;;;;;;;;;;15.10;65.20;;;;;;5093713;28;20298;-64
2023/01/02 06:51:50;;;;;;;;;;;15.00;65.10;;;;;;5075240;28;19949;-72
2023/01/02 06:54:15;;;;;;;;;;;15.10;65.20;;;;;;5093405;28;19916;-64
2023/01/02 06:56:41;;;;;;;;;;;15.10;65.20;;;;;;5074426;28;19920;-65
2023/01/02 06:59:08;;;;;;;;;;;15.10;65.20;;;;;;5092949;28;19927;-66
2023/01/02 07:01:33;;;;;;;;;;;15.00;65.20;;;;;;5075038;28;19922;-65
2023/01/02 07:03:59;;;;;;;;;;;15.00;65.30;;;;;;5092752;28;20363;-64
2023/01/02 07:06:26;;;;;;;;;;;15.00;65.20;;;;;;5074836;28;19916;-64
2023/01/02 07:08:52;;;;;;;;;;;15.10;65.30;;;;;;5074894;28;20392;-72
2023/01/02 07:11:18;;;;;;;;;;;15.10;65.40;;;;;;5075311;28;20044;-64
2023/01/02 07:13:45;;;;;;;;;;;15.00;65.40;;;;;;5074827;28;20026;-64
2023/01/02 07:16:12;;;;;;;;;;;15.10;65.40;;;;;;5075158;28;19920;-71
2023/01/02 07:18:37;;;;;;;;;;;15.10;65.50;;;;;;5074895;28;19931;-64
2023/01/02 07:21:04;;;;;;;;;;;15.10;65.50;;;;;;5074709;28;20382;-64
2023/01/02 07:23:29;;;;;;;;;;;15.10;65.50;;;;;;5074660;28;20401;-64
2023/01/02 07:25:56;;;;;;;;;;;15.00;65.50;;;;;;5093014;28;19920;-64
2023/01/02 07:28:22;;;;;;;;;;;15.00;65.50;;;;;;5074678;28;19927;-64
2023/01/02 07:30:47;;;;;;;;;;;15.00;65.50;;;;;;5092835;28;19920;-71
2023/01/02 07:33:13;;;;;;;;;;;15.00;65.50;;;;;;5074595;28;19927;-64
2023/01/02 07:35:39;;;;;;;;;;;15.00;65.50;;;;;;5092726;28;19931;-65
2023/01/02 07:38:04;;;;;;;;;;;15.00;65.50;;;;;;5092797;28;19920;-71
2023/01/02 07:40:31;;;;;;;;;;;15.00;65.50;;;;;;5074480;28;20319;-64
2023/01/02 07:42:56;;;;;;;;;;;15.10;65.50;;;;;;5092571;28;19920;-65
2023/01/02 07:45:22;;;;;;;;;;;15.00;65.50;;;;;;5092634;28;20007;-64
2023/01/02 07:47:47;;;;;;;;;;;15.10;65.50;;;;;;5074786;28;20003;-64
2023/01/02 07:50:13;;;;;;;;;;;15.00;65.50;;;;;;5092488;28;20333;-71
2023/01/02 07:52:38;;;;;;;;;;;15.10;65.50;;;;;;5092483;28;19976;-65
2023/01/02 07:55:04;;;;;;;;;;;15.10;65.50;;;;;;5092630;28;19928;-65
2023/01/02 07:57:30;;;;;;;;;;;15.00;65.50;;;;;;5074664;28;20491;-71
2023/01/02 07:59:56;;;;;;;;;;;15.10;65.50;;;;;;5091934;28;19931;-64
2023/01/02 08:02:21;;;;;;;;;;;15.00;65.40;;;;;;5074299;28;19927;-65
2023/01/02 08:04:47;;;;;;;;;;;15.00;65.50;;;;;;5074143;28;19920;-71
2023/01/02 08:07:12;;;;;;;;;;;15.00;65.40;;;;;;5074490;28;20015;-65
2023/01/02 08:09:38;;;;;;;;;;;15.00;65.40;;;;;;5074184;28;19970;-64
2023/01/02 08:12:04;;;;;;;;;;;15.00;65.40;;;;;;5074250;28;19946;-71
2023/01/02 08:14:29;;;;;;;;;;;15.00;65.40;;;;;;5091568;28;19924;-65
2023/01/02 08:16:55;;;;;;;;;;;15.00;65.40;;;;;;5092389;28;19926;-65
2023/01/02 08:19:20;;;;;;;;;;;15.00;65.40;;;;;;5074215;28;19955;-64
2023/01/02 08:21:46;;;;;;;;;;;15.00;65.40;;;;;;5092253;28;20380;-64
2023/01/02 08:24:11;;;;;;;;;;;15.00;65.40;;;;;;5074342;28;20367;-65
2023/01/02 08:26:37;;;;;;;;;;;15.00;65.40;;;;;;5074012;28;19927;-64
2023/01/02 08:29:03;;;;;;;;;;;15.00;65.30;;;;;;5074081;28;19970;-64
2023/01/02 08:31:28;;;;;;;;;;;15.00;65.30;;;;;;5074263;28;20082;-65
2023/01/02 08:33:54;;;;;;;;;;;15.00;65.40;;;;;;5092474;28;20268;-71
2023/01/02 08:36:19;;;;;;;;;;;15.00;65.40;;;;;;5073944;28;20276;-65
2023/01/02 08:38:45;;;;;;;;;;;15.00;65.30;;;;;;5073945;28;19924;-65
2023/01/02 08:41:10;;;;;;;;;;;15.00;65.30;;;;;;5074223;28;19920;-64
2023/01/02 08:43:36;;;;;;;;;;;15.00;65.30;;;;;;5092118;28;20375;-71
2023/01/02 08:46:06;;;;;;;;;;;15.00;65.30;;;;;;5075087;28;19977;-65
2023/01/02 08:48:31;;;;;;;;;;;15.00;65.30;;;;;;5077953;28;20010;-65
2023/01/02 08:50:57;;;;;;;;;;;15.00;65.30;;;;;;5095669;28;20014;-65
2023/01/02 08:53:22;;;;;;;;;;;14.90;65.20;;;;;;5078204;28;19924;-64
2023/01/02 08:55:48;;;;;;;;;;;15.00;65.30;;;;;;5095620;28;19920;-65
2023/01/02 08:58:13;;;;;;;;;;;15.00;65.30;;;;;;5077818;28;19927;-65
2023/01/02 09:00:39;;;;;;;;;;;15.00;65.20;;;;;;5073746;28;19928;-64
2023/01/02 09:03:05;;;;;;;;;;;15.00;65.20;;;;;;5073984;28;19920;-65
2023/01/02 09:05:30;;;;;;;;;;;15.00;65.20;;;;;;5075121;28;19920;-64
2023/01/02 09:07:56;;;;;;;;;;;14.90;65.20;;;;;;5073875;28;20018;-65
2023/01/02 09:10:22;;;;;;;;;;;15.00;65.20;;;;;;5073977;28;20011;-71
2023/01/02 09:12:51;;;;;;;;;;;14.90;65.10;;;;;;5074140;28;20058;-64
2023/01/02 09:15:16;;;;;;;;;;;14.90;65.10;;;;;;5074027;28;20369;-65
2023/01/02 09:17:42;;;;;;;;;;;14.90;65.10;;;;;;5073806;28;19974;-65
2023/01/02 09:20:07;;;;;;;;;;;14.90;65.00;;;;;;5074937;28;19977;-65
2023/01/02 09:22:33;;;;;;;;;;;14.90;65.00;;;;;;5074903;28;20019;-64
2023/01/02 09:24:58;;;;;;;;;;;14.90;65.00;;;;;;5073610;28;19927;-65
2023/01/02 09:27:24;;;;;;;;;;;14.90;65.00;;;;;;5073851;28;20018;-71
2023/01/02 09:29:50;;;;;;;;;;;14.90;65.00;;;;;;5074803;28;19920;-65
2023/01/02 09:32:15;;;;;;;;;;;14.90;65.00;;;;;;5074683;28;19973;-65
2023/01/02 09:34:41;;;;;;;;;;;14.90;65.00;;;;;;5073548;28;19962;-72
2023/01/02 09:37:06;;;;;;;;;;;14.90;65.00;;;;;;5073323;28;19978;-65
2023/01/02 09:39:32;;;;;;;;;;;14.90;65.00;;;;;;5073505;28;19975;-65
2023/01/02 09:41:58;;;;;;;;;;;14.90;65.00;;;;;;5073307;28;19920;-71
2023/01/02 09:44:32;;;;;;;;;;;14.90;65.00;;;;;;5074591;28;19921;-65
2023/01/02 09:47:02;;;;;;;;;;;14.90;65.00;;;;;;5074574;28;20015;-65
2023/01/02 09:49:31;;;;;;;;;;;14.90;65.00;;;;;;5073621;28;20379;-65
2023/01/02 09:51:56;;;;;;;;;;;14.90;65.00;;;;;;5056320;28;19921;-65
2023/01/02 09:54:25;;;;;;;;;;;14.90;64.90;;;;;;5073145;28;19951;-71
2023/01/02 09:56:54;;;;;;;;;;;14.90;64.90;;;;;;5073244;28;19955;-65
2023/01/02 09:59:26;;;;;;;;;;;14.90;64.90;;;;;;5072525;28;20003;-65
2023/01/02 10:02:12;;;;;;;;;;;14.90;64.90;;;;;;5073264;28;19920;-65
2023/01/02 10:04:48;;;;;;;;;;;14.90;64.90;;;;;;5072476;28;19921;-65
2023/01/02 10:07:19;;;;;;;;;;;14.90;64.90;;;;;;5073128;28;19928;-71
2023/01/02 10:12:33;;;;;;;;;;;14.90;64.80;;;;;;5192037;27;19910;-65
2023/01/02 10:15:00;;;;;;;;;;;14.90;64.80;;;;;;5153423;27;19919;-71
2023/01/02 10:17:28;;;;;;;;;;;14.90;64.80;;;;;;5153295;27;19926;-72
2023/01/02 10:22:41;;;;;;;;;;;14.90;64.70;;;;;;5089973;28;19918;-65
2023/01/02 10:25:14;;;;;;;;;;;14.90;64.70;;;;;;5088576;28;20404;-65
2023/01/02 10:27:58;;;;;;;;;;;14.90;64.70;;;;;;5088882;28;19920;-71
2023/01/02 10:30:25;;;;;;;;;;;14.90;64.70;;;;;;5089554;28;19920;-65
2023/01/02 10:32:56;;;;;;;;;;;14.90;64.70;;;;;;5087180;28;20003;-66
2023/01/02 10:35:29;;;;;;;;;;;14.90;64.70;;;;;;5086867;28;19960;-66
2023/01/02 10:37:55;;;;;;;;;;;15.00;65.00;;;;;;5086417;28;19920;-65
2023/01/02 10:40:21;;;;;;;;;;;15.30;65.20;;;;;;5086769;28;19970;-72
2023/01/02 10:42:49;;;;;;;;;;;15.70;64.70;;;;;;5086864;28;19981;-71
2023/01/02 10:45:15;;;;;;;;;;;16.10;63.80;;;;;;5086313;28;19951;-65
2023/01/02 10:47:40;;;;;;;;;;;16.60;62.40;;;;;;5086301;28;19924;-65
2023/01/02 10:50:09;;;;;;;;;;;17.20;61.10;;;;;;5087518;28;19924;-71
2023/01/02 10:52:42;;;;;;;;;;;17.70;59.80;;;;;;5089383;28;20010;-65
2023/01/02 10:55:07;;;;;;;;;;;18.40;58.10;;;;;;5087937;28;19920;-73
2023/01/02 10:57:42;;;;;;;;;;;19.10;56.60;;;;;;5089286;28;19989;-65
2023/01/02 11:00:25;;;;;;;;;;;19.80;54.70;;;;;;5089134;28;19920;-65
2023/01/02 11:02:52;;;;;;;;;;;20.40;53.30;;;;;;5087889;28;20402;-71
2023/01/02 11:05:22;;;;;;;;;;;21.10;51.20;;;;;;5089034;28;20007;-65
2023/01/02 11:07:50;;;;;;;;;;;21.70;50.50;;;;;;5087804;28;20548;-71
2023/01/02 11:10:33;;;;;;;;;;;22.10;48.20;;;;;;5088950;28;19924;-71
2023/01/02 11:13:02;;;;;;;;;;;22.50;47.40;;;;;;5087953;28;19936;-65
2023/01/02 11:15:29;;;;;;;;;;;22.90;46.30;;;;;;5088885;28;19920;-65
2023/01/02 11:17:56;;;;;;;;;;;23.10;46.00;;;;;;5088935;28;19963;-73
2023/01/02 11:23:02;;;;;;;;;;;23.40;45.30;;;;;;5110218;27;20283;-65
2023/01/02 11:25:37;;;;;;;;;;;23.50;45.10;;;;;;5108843;28;20010;-73
2023/01/02 11:28:03;;;;;;;;;;;23.70;44.90;;;;;;5110199;28;19935;-64
2023/01/02 11:30:32;;;;;;;;;;;23.70;44.60;;;;;;5108739;28;20386;-65
2023/01/02 11:33:06;;;;;;;;;;;23.80;44.20;;;;;;5108870;28;19924;-65
2023/01/02 11:35:36;;;;;;;;;;;23.70;43.80;;;;;;5143178;27;19920;-69
2023/01/02 11:38:02;;;;;;;;;;;23.60;44.60;;;;;;5108676;28;20015;-65
2023/01/02 11:40:29;;;;;;;;;;;23.60;45.00;;;;;;5108627;28;19928;-66
2023/01/02 11:45:42;;;;;;;;;;;23.40;44.40;;;;;;5108547;28;19924;-65
2023/01/02 11:48:13;;;;;;;;;;;23.20;45.00;;;;;;5109112;28;20264;-65
2023/01/02 11:50:41;;;;;;;;;;;23.10;45.80;;;;;;5107666;28;20272;-65
2023/01/02 11:53:13;;;;;;;;;;;22.80;45.80;;;;;;5107890;28;20391;-65
2023/01/02 11:55:42;;;;;;;;;;;22.60;46.60;;;;;;5106700;28;19920;-65
2023/01/02 11:58:18;;;;;;;;;;;22.50;46.50;;;;;;5108746;28;19927;-65
2023/01/02 12:00:47;;;;;;;;;;;22.30;46.50;;;;;;5106700;28;19924;-65
2023/01/02 12:03:15;;;;;;;;;;;22.10;47.20;;;;;;5108308;28;20006;-66
2023/01/02 12:08:49;;;;;;;;;;;21.70;48.60;;;;;;5110134;27;20302;-71
2023/01/02 12:11:22;;;;;;;;;;;21.50;49.10;;;;;;5107420;28;20057;-66
2023/01/02 12:13:53;;;;;;;;;;;21.30;49.20;;;;;;5109460;28;20341;-65
2023/01/02 12:19:08;;;;;;;;;;;20.90;49.80;;;;;;5109413;27;19918;-66
2023/01/02 12:24:29;;;;;;;;;;;20.60;51.00;;;;;;5088689;28;19940;-71
2023/01/02 12:27:03;;;;;;;;;;;20.50;51.40;;;;;;5088196;28;20375;-71
2023/01/02 12:32:31;;;;;;;;;;;20.20;51.70;;;;;;5129279;27;1864887;-66
2023/01/02 12:35:03;;;;;;;;;;;20.10;51.90;;;;;;5174038;27;20194;-67
2023/01/02 12:40:34;;;;;;;;;;;19.80;52.40;;;;;;5131393;27;1866790;-71
2023/01/02 12:43:20;;;;;;;;;;;19.60;52.70;;;;;;5174087;27;19918;-71
2023/01/02 12:45:51;;;;;;;;;;;19.50;52.90;;;;;;5153736;27;19921;-66
2023/01/02 12:48:23;;;;;;;;;;;19.40;53.10;;;;;;5153374;27;20301;-66
2023/01/02 12:51:08;;;;;;;;;;;19.40;53.30;;;;;;5153215;27;20428;-71
2023/01/02 12:53:43;;;;;;;;;;;19.20;53.40;;;;;;5153515;27;19950;-65
2023/01/02 12:56:15;;;;;;;;;;;19.10;53.70;;;;;;5172204;27;19929;-66
2023/01/02 12:58:48;;;;;;;;;;;19.00;53.80;;;;;;5153296;27;19919;-66
2023/01/02 13:03:59;;;;;;;;;;;18.80;54.10;;;;;;5110014;27;19919;-71
2023/01/02 13:06:26;;;;;;;;;;;18.70;54.30;;;;;;5108757;28;19935;-71
2023/01/02 13:09:11;;;;;;;;;;;18.70;54.40;;;;;;5109049;28;19923;-71
2023/01/02 13:14:18;;;;;;;;;;;18.50;54.70;;;;;;5089747;28;19919;-71
2023/01/02 13:16:56;;;;;;;;;;;18.50;54.90;;;;;;5088529;28;20010;-72
2023/01/02 13:22:09;;;;;;;;;;;18.30;55.20;;;;;;5129240;27;1866356;-72
2023/01/02 13:24:34;;;;;;;;;;;18.20;55.30;;;;;;5174128;27;20445;-65
2023/01/02 13:27:00;;;;;;;;;;;18.30;55.50;;;;;;5174555;27;19918;-71
2023/01/02 13:29:27;;;;;;;;;;;18.10;55.60;;;;;;5193511;27;20259;-66
2023/01/02 13:31:54;;;;;;;;;;;18.10;55.80;;;;;;5174149;27;19919;-71
2023/01/02 13:37:00;;;;;;;;;;;18.00;56.00;;;;;;5127071;27;1880542;-66
2023/01/02 13:39:27;;;;;;;;;;;17.90;56.00;;;;;;5174288;27;20350;-66
2023/01/02 13:44:44;;;;;;;;;;;17.80;56.20;;;;;;5174049;27;19926;-71
2023/01/02 13:47:15;;;;;;;;;;;17.80;56.40;;;;;;5174015;27;19918;-65
2023/01/02 13:49:41;;;;;;;;;;;17.70;56.40;;;;;;5192938;27;19925;-66
2023/01/02 13:52:13;;;;;;;;;;;17.60;56.50;;;;;;5174086;27;19918;-71
2023/01/02 13:54:39;;;;;;;;;;;17.60;56.60;;;;;;5180539;27;19922;-71
2023/01/02 13:57:25;;;;;;;;;;;17.60;56.80;;;;;;5171551;27;19919;-66
2023/01/02 13:59:57;;;;;;;;;;;17.50;56.70;;;;;;5171154;27;20045;-66
2023/01/02 14:02:22;;;;;;;;;;;17.50;56.90;;;;;;5153219;27;20108;-72
2023/01/02 14:04:48;;;;;;;;;;;17.40;57.00;;;;;;5171500;27;20390;-66
2023/01/02 14:12:51;;;;;;;;;;;17.30;57.20;;;;;;5089333;28;19940;-71
2023/01/02 14:15:19;;;;;;;;;;;17.20;57.30;;;;;;5088610;28;19974;-66
2023/01/02 14:17:51;;;;;;;;;;;17.20;57.40;;;;;;5088716;28;19965;-66
2023/01/02 14:23:00;;;;;;;;;;;17.10;57.60;;;;;;5110238;27;19922;-65
2023/01/02 14:25:27;;;;;;;;;;;17.10;57.60;;;;;;5109256;28;20018;-66
2023/01/02 14:27:53;;;;;;;;;;;17.00;57.70;;;;;;5108854;28;20409;-71
2023/01/02 14:30:22;;;;;;;;;;;17.00;57.80;;;;;;5110211;28;19935;-66
2023/01/02 14:32:49;;;;;;;;;;;17.00;57.90;;;;;;5108809;28;20019;-66
2023/01/02 14:38:17;;;;;;;;;;;16.90;57.90;;;;;;5089936;28;20386;-72
2023/01/02 14:40:43;;;;;;;;;;;16.80;58.00;;;;;;5090122;28;19960;-72
2023/01/02 14:45:48;;;;;;;;;;;16.80;58.30;;;;;;5127416;27;1875664;-66
2023/01/02 14:48:18;;;;;;;;;;;16.70;58.30;;;;;;5174378;27;19929;-66
2023/01/02 14:50:46;;;;;;;;;;;16.70;58.40;;;;;;5174742;27;19918;-65
2023/01/02 14:53:15;;;;;;;;;;;16.70;58.50;;;;;;5192935;27;19925;-66
2023/01/02 14:55:40;;;;;;;;;;;16.60;58.50;;;;;;5174699;27;19923;-72
2023/01/02 14:58:18;;;;;;;;;;;16.60;58.60;;;;;;5193020;27;19977;-66
2023/01/02 15:00:45;;;;;;;;;;;16.50;58.80;;;;;;5174198;27;20009;-65
2023/01/02 15:03:16;;;;;;;;;;;16.50;58.90;;;;;;5174346;27;20369;-66
2023/01/02 15:05:48;;;;;;;;;;;16.50;59.00;;;;;;5174122;27;19967;-66
2023/01/02 15:08:16;;;;;;;;;;;16.40;59.10;;;;;;5192894;27;19918;-66
2023/01/02 15:13:02;;;;;;;;;;;16.40;59.20;;;;;;5174061;27;19967;-65
2023/01/02 15:13:51;;;;;;;;;;;16.30;59.20;;;;;;5173652;27;19962;-65
2023/01/02 15:16:18;;;;;;;;;;;16.30;59.30;;;;;;5174362;27;20001;-65
2023/01/02 15:18:44;;;;;;;;;;;16.30;59.30;;;;;;5173884;27;19926;-64
2023/01/02 15:21:11;;;;;;;;;;;16.30;59.40;;;;;;5173874;27;20021;-65
2023/01/02 15:23:41;;;;;;;;;;;16.30;59.40;;;;;;5192357;27;19931;-68
2023/01/02 15:26:27;;;;;;;;;;;16.20;59.40;;;;;;5173685;27;19929;-64
2023/01/02 15:28:53;;;;;;;;;;;16.20;59.50;;;;;;5173430;27;20376;-65
2023/01/02 15:31:19;;;;;;;;;;;16.20;59.60;;;;;;5173962;27;20010;-68
2023/01/02 15:33:50;;;;;;;;;;;16.20;59.70;;;;;;5173837;27;20005;-64
2023/01/02 15:36:18;;;;;;;;;;;16.20;59.80;;;;;;5173490;27;19918;-65
2023/01/02 15:38:44;;;;;;;;;;;16.10;59.80;;;;;;5173417;27;19923;-64
2023/01/02 15:41:18;;;;;;;;;;;16.10;59.80;;;;;;5192249;27;19922;-69
2023/01/02 15:46:29;;;;;;;;;;;16.10;59.90;;;;;;5173419;27;19975;-64
2023/01/02 15:48:55;;;;;;;;;;;16.10;60.00;;;;;;5173382;27;20315;-64